Time;durP1;ratioP1;P1;durP2;ratioP2;P2;SDS_P1;SDS_P2;PMS_P1;PMS_P2;Temp;Humidity;BMP_temperature;BMP_pressure;BME280_temperature;BME280_humidity;BME280_pressure;Samples;Min_cycle;Max_cycle;Signal;HPM_P1;HPM_P2
2024/03/22 00:01:26;;;;;;;3.63;1.30;;;;;;;;;;5072057;28;20058;-58
2024/03/22 00:03:51;;;;;;;4.03;1.60;;;;;;;;;;5072068;28;20033;-59
2024/03/22 00:06:16;;;;;;;3.30;1.40;;;;;;;;;;5071902;28;20047;-60
2024/03/22 00:08:41;;;;;;;3.47;1.40;;;;;;;;;;5071359;28;20036;-59
2024/03/22 00:11:07;;;;;;;5.30;1.60;;;;;;;;;;5071910;28;20056;-61
2024/03/22 00:13:32;;;;;;;3.65;1.33;;;;;;;;;;5066951;28;20060;-52
2024/03/22 00:15:57;;;;;;;3.80;1.65;;;;;;;;;;5071434;28;20079;-53
2024/03/22 00:18:23;;;;;;;2.50;1.30;;;;;;;;;;5071843;28;20029;-54
2024/03/22 00:20:48;;;;;;;2.80;1.40;;;;;;;;;;5071739;28;20060;-53
2024/03/22 00:23:13;;;;;;;3.42;1.60;;;;;;;;;;5071449;28;20469;-56
2024/03/22 00:25:39;;;;;;;3.92;1.45;;;;;;;;;;5064747;28;20185;-61
2024/03/22 00:28:04;;;;;;;2.30;1.20;;;;;;;;;;5071938;28;20445;-60
2024/03/22 00:30:29;;;;;;;4.95;1.08;;;;;;;;;;5071582;28;20444;-62
2024/03/22 00:32:55;;;;;;;3.67;1.60;;;;;;;;;;5071989;28;20110;-59
2024/03/22 00:35:20;;;;;;;3.55;1.40;;;;;;;;;;5071878;28;20040;-53
2024/03/22 00:37:45;;;;;;;3.20;1.38;;;;;;;;;;5071674;28;20040;-53
2024/03/22 00:40:11;;;;;;;2.97;1.35;;;;;;;;;;5071683;28;20111;-56
2024/03/22 00:42:36;;;;;;;3.53;1.25;;;;;;;;;;5071780;28;20464;-56
2024/03/22 00:45:02;;;;;;;3.55;1.58;;;;;;;;;;5071890;28;20139;-53
2024/03/22 00:47:27;;;;;;;5.28;1.30;;;;;;;;;;5071219;28;20062;-53
2024/03/22 00:49:52;;;;;;;2.63;1.30;;;;;;;;;;5071814;28;20072;-53
2024/03/22 00:52:18;;;;;;;2.13;1.30;;;;;;;;;;5071171;28;20044;-55
2024/03/22 00:54:43;;;;;;;2.72;1.27;;;;;;;;;;5071117;28;20031;-56
2024/03/22 00:57:08;;;;;;;3.42;1.30;;;;;;;;;;5071331;28;20356;-60
2024/03/22 00:59:34;;;;;;;3.10;1.40;;;;;;;;;;5070343;28;20707;-61
2024/03/22 01:01:59;;;;;;;2.95;1.45;;;;;;;;;;5070973;28;20448;-60
2024/03/22 01:04:24;;;;;;;3.25;1.50;;;;;;;;;;5070866;28;20024;-61
2024/03/22 01:06:50;;;;;;;2.95;1.52;;;;;;;;;;5070951;28;20110;-62
2024/03/22 01:09:15;;;;;;;2.80;1.30;;;;;;;;;;5071253;28;20124;-54
2024/03/22 01:11:40;;;;;;;3.28;1.40;;;;;;;;;;5070632;28;20128;-53
2024/03/22 01:14:06;;;;;;;2.63;1.13;;;;;;;;;;5071412;28;20051;-56
2024/03/22 01:16:31;;;;;;;2.35;1.27;;;;;;;;;;5071059;28;20036;-54
2024/03/22 01:18:56;;;;;;;2.70;1.35;;;;;;;;;;5070448;28;20045;-54
2024/03/22 01:21:24;;;;;;;2.38;1.00;;;;;;;;;;5070753;28;20115;-56
2024/03/22 01:23:53;;;;;;;2.50;1.30;;;;;;;;;;5070935;28;20430;-56
2024/03/22 01:26:18;;;;;;;2.70;1.10;;;;;;;;;;5070886;28;20051;-54
2024/03/22 01:28:43;;;;;;;3.35;1.27;;;;;;;;;;5070754;28;20476;-56
2024/03/22 01:31:09;;;;;;;2.70;1.25;;;;;;;;;;5070556;28;20192;-56
2024/03/22 01:33:34;;;;;;;2.47;1.27;;;;;;;;;;5070898;28;20086;-55
2024/03/22 01:35:59;;;;;;;3.15;1.20;;;;;;;;;;5070566;28;20490;-54
2024/03/22 01:38:25;;;;;;;2.88;1.33;;;;;;;;;;5070536;28;20482;-54
2024/03/22 01:40:50;;;;;;;1.98;1.15;;;;;;;;;;5070779;28;20464;-51
2024/03/22 01:43:15;;;;;;;4.72;1.20;;;;;;;;;;5070681;28;20511;-56
2024/03/22 01:45:41;;;;;;;2.67;1.15;;;;;;;;;;5070588;28;20056;-57
2024/03/22 01:48:07;;;;;;;2.45;1.13;;;;;;;;;;5070594;28;20068;-56
2024/03/22 01:50:32;;;;;;;2.53;1.13;;;;;;;;;;5069188;28;20127;-56
2024/03/22 01:52:58;;;;;;;2.38;1.10;;;;;;;;;;5070721;28;20154;-56
2024/03/22 01:55:24;;;;;;;2.15;1.20;;;;;;;;;;5070001;28;20060;-52
2024/03/22 01:57:49;;;;;;;2.53;1.20;;;;;;;;;;5070310;28;20101;-55
2024/03/22 02:00:15;;;;;;;1.88;0.93;;;;;;;;;;5069182;28;20491;-57
2024/03/22 02:02:40;;;;;;;2.60;1.10;;;;;;;;;;5070439;28;20047;-55
2024/03/22 02:05:19;;;;;;;5.95;1.20;;;;;;;;;;5070266;28;20055;-56
2024/03/22 02:07:44;;;;;;;2.17;1.17;;;;;;;;;;5068470;28;20047;-55
2024/03/22 02:10:13;;;;;;;2.97;1.02;;;;;;;;;;5069995;28;20040;-55
2024/03/22 02:12:39;;;;;;;1.70;1.02;;;;;;;;;;5070266;28;20037;-56
2024/03/22 02:15:05;;;;;;;2.38;1.00;;;;;;;;;;5070244;28;20074;-55
2024/03/22 02:17:31;;;;;;;2.50;1.23;;;;;;;;;;5069199;28;20068;-54
2024/03/22 02:19:56;;;;;;;2.17;1.00;;;;;;;;;;5069231;28;20628;-56
2024/03/22 02:22:22;;;;;;;1.70;1.00;;;;;;;;;;5069902;28;20067;-55
2024/03/22 02:24:47;;;;;;;4.75;1.40;;;;;;;;;;5069688;28;20443;-54
2024/03/22 02:27:12;;;;;;;2.67;0.95;;;;;;;;;;5070351;28;20094;-57
2024/03/22 02:29:38;;;;;;;1.92;1.02;;;;;;;;;;5069455;28;20712;-56
2024/03/22 02:32:03;;;;;;;2.63;1.10;;;;;;;;;;5069749;28;20032;-54
2024/03/22 02:34:29;;;;;;;2.20;0.90;;;;;;;;;;5069797;28;20376;-55
2024/03/22 02:36:54;;;;;;;1.92;1.00;;;;;;;;;;5069949;28;20097;-53
2024/03/22 02:39:19;;;;;;;1.60;0.90;;;;;;;;;;5069669;28;20086;-56
2024/03/22 02:41:45;;;;;;;2.45;1.00;;;;;;;;;;5070102;28;20055;-57
2024/03/22 02:44:10;;;;;;;2.72;0.90;;;;;;;;;;5068609;28;20094;-56
2024/03/22 02:46:35;;;;;;;4.10;1.13;;;;;;;;;;5069544;28;20041;-54
2024/03/22 02:49:01;;;;;;;2.55;1.10;;;;;;;;;;5069943;28;20036;-57
2024/03/22 02:51:26;;;;;;;1.73;1.00;;;;;;;;;;5070021;28;20094;-55
2024/03/22 02:53:51;;;;;;;1.50;0.80;;;;;;;;;;5069290;28;20032;-57
2024/03/22 02:56:17;;;;;;;1.48;0.90;;;;;;;;;;5069688;28;20124;-56
2024/03/22 02:58:42;;;;;;;1.65;1.00;;;;;;;;;;5069753;28;20047;-55
2024/03/22 03:01:07;;;;;;;1.60;0.85;;;;;;;;;;5069106;28;20040;-56
2024/03/22 03:03:33;;;;;;;1.52;0.85;;;;;;;;;;5069759;28;20031;-53
2024/03/22 03:05:58;;;;;;;1.20;0.80;;;;;;;;;;5069567;28;20115;-55
2024/03/22 03:08:23;;;;;;;1.70;0.90;;;;;;;;;;5069526;28;20037;-55
2024/03/22 03:10:49;;;;;;;1.40;0.80;;;;;;;;;;5069567;28;20036;-56
2024/03/22 03:13:14;;;;;;;1.60;0.90;;;;;;;;;;5069754;28;20420;-55
2024/03/22 03:15:39;;;;;;;1.45;0.80;;;;;;;;;;5069232;28;20032;-55
2024/03/22 03:18:05;;;;;;;2.78;0.98;;;;;;;;;;5069521;28;20594;-57
2024/03/22 03:20:30;;;;;;;1.63;0.88;;;;;;;;;;5069390;28;20074;-52
2024/03/22 03:22:59;;;;;;;1.65;0.82;;;;;;;;;;5069740;28;20117;-53
2024/03/22 03:25:24;;;;;;;1.38;0.77;;;;;;;;;;5069138;28;20024;-56
2024/03/22 03:27:50;;;;;;;1.83;0.93;;;;;;;;;;5069615;28;20036;-57
2024/03/22 03:30:15;;;;;;;1.75;1.08;;;;;;;;;;5071178;28;20045;-55
2024/03/22 03:32:40;;;;;;;1.60;0.90;;;;;;;;;;5072636;28;20035;-56
2024/03/22 03:35:06;;;;;;;2.65;0.85;;;;;;;;;;5073314;28;20044;-55
2024/03/22 03:37:31;;;;;;;1.20;0.70;;;;;;;;;;5072887;28;20491;-55
2024/03/22 03:39:57;;;;;;;1.88;0.88;;;;;;;;;;5072798;28;20040;-56
2024/03/22 03:42:22;;;;;;;2.03;0.82;;;;;;;;;;5073026;28;20036;-54
2024/03/22 03:44:47;;;;;;;1.80;0.95;;;;;;;;;;5072834;28;20051;-56
2024/03/22 03:47:12;;;;;;;1.17;0.80;;;;;;;;;;5072640;28;20101;-57
2024/03/22 03:49:38;;;;;;;1.85;0.88;;;;;;;;;;5072670;28;20606;-54
2024/03/22 03:52:03;;;;;;;0.68;0.55;;;;;;;;;;5072799;28;20058;-54
2024/03/22 03:54:29;;;;;;;1.80;0.98;;;;;;;;;;5072501;28;20506;-55
2024/03/22 03:56:54;;;;;;;1.75;0.75;;;;;;;;;;5072212;28;20115;-57
2024/03/22 03:59:19;;;;;;;2.10;0.90;;;;;;;;;;5072725;28;20040;-54
2024/03/22 04:01:45;;;;;;;1.30;0.63;;;;;;;;;;5072574;28;20094;-57
2024/03/22 04:04:10;;;;;;;1.35;0.80;;;;;;;;;;5071947;28;20101;-55
2024/03/22 04:06:35;;;;;;;1.25;0.70;;;;;;;;;;5072429;28;20036;-53
2024/03/22 04:09:02;;;;;;;0.95;0.70;;;;;;;;;;5072438;28;20021;-56
2024/03/22 04:11:28;;;;;;;1.52;0.90;;;;;;;;;;5071943;28;20033;-55
2024/03/22 04:13:53;;;;;;;0.82;0.60;;;;;;;;;;5072488;28;20116;-57
2024/03/22 04:16:18;;;;;;;1.83;0.70;;;;;;;;;;5070985;28;20507;-53
2024/03/22 04:18:44;;;;;;;1.25;0.60;;;;;;;;;;5072366;28;20468;-56
2024/03/22 04:21:09;;;;;;;1.15;0.70;;;;;;;;;;5068901;28;20633;-57
2024/03/22 04:23:34;;;;;;;2.55;0.73;;;;;;;;;;5071201;28;20036;-56
2024/03/22 04:26:01;;;;;;;0.95;0.50;;;;;;;;;;5072040;28;20040;-52
2024/03/22 04:28:27;;;;;;;1.05;0.70;;;;;;;;;;5070991;28;20068;-56
2024/03/22 04:30:59;;;;;;;1.85;0.73;;;;;;;;;;5064778;28;20400;-54
2024/03/22 04:33:25;;;;;;;1.08;0.60;;;;;;;;;;5071732;28;21314;-54
2024/03/22 04:35:50;;;;;;;1.30;0.70;;;;;;;;;;5071773;28;20045;-56
2024/03/22 04:38:16;;;;;;;1.40;0.70;;;;;;;;;;5071738;28;20158;-57
2024/03/22 04:40:41;;;;;;;1.90;0.65;;;;;;;;;;5069492;28;20083;-56
2024/03/22 04:43:08;;;;;;;1.80;0.80;;;;;;;;;;5069998;28;20051;-54
2024/03/22 04:45:33;;;;;;;1.30;0.77;;;;;;;;;;5071325;28;20038;-54
2024/03/22 04:48:01;;;;;;;1.27;0.63;;;;;;;;;;5071237;28;20036;-55
2024/03/22 04:50:26;;;;;;;1.45;0.80;;;;;;;;;;5071684;28;20043;-57
2024/03/22 04:52:51;;;;;;;3.03;0.70;;;;;;;;;;5071429;28;20048;-53
2024/03/22 04:55:17;;;;;;;1.10;0.60;;;;;;;;;;5071531;28;20043;-54
2024/03/22 04:57:42;;;;;;;0.93;0.60;;;;;;;;;;5071004;28;20032;-55
2024/03/22 05:00:08;;;;;;;1.60;0.75;;;;;;;;;;5071317;28;20026;-56
2024/03/22 05:02:34;;;;;;;0.93;0.70;;;;;;;;;;5070872;28;20045;-55
2024/03/22 05:04:59;;;;;;;1.08;0.63;;;;;;;;;;5071675;28;20047;-55
2024/03/22 05:07:25;;;;;;;2.85;0.70;;;;;;;;;;5070595;28;20375;-53
2024/03/22 05:09:50;;;;;;;1.08;0.68;;;;;;;;;;5071412;28;20599;-56
2024/03/22 05:12:15;;;;;;;1.10;0.55;;;;;;;;;;5070632;28;20488;-55
2024/03/22 05:14:41;;;;;;;1.10;0.68;;;;;;;;;;5070789;28;20056;-56
2024/03/22 05:17:06;;;;;;;2.95;0.70;;;;;;;;;;5070926;28;20036;-56
2024/03/22 05:19:31;;;;;;;2.13;0.70;;;;;;;;;;5070691;28;20396;-53
2024/03/22 05:21:57;;;;;;;0.77;0.60;;;;;;;;;;5070818;28;20438;-55
2024/03/22 05:24:22;;;;;;;1.00;0.60;;;;;;;;;;5070788;28;20094;-56
2024/03/22 05:26:47;;;;;;;0.93;0.57;;;;;;;;;;5070710;28;20041;-56
2024/03/22 05:29:14;;;;;;;1.40;0.70;;;;;;;;;;5070517;28;20038;-55
2024/03/22 05:31:48;;;;;;;0.80;0.50;;;;;;;;;;5068746;28;20039;-55
2024/03/22 05:34:14;;;;;;;1.58;0.70;;;;;;;;;;5070222;28;20082;-56
2024/03/22 05:36:40;;;;;;;0.55;0.50;;;;;;;;;;5070764;28;20084;-57
2024/03/22 05:39:05;;;;;;;0.60;0.50;;;;;;;;;;5070340;28;20492;-57
2024/03/22 05:41:30;;;;;;;1.08;0.50;;;;;;;;;;5070551;28;20040;-56
2024/03/22 05:43:56;;;;;;;0.55;0.50;;;;;;;;;;5070490;28;20052;-52
2024/03/22 05:46:21;;;;;;;1.63;0.50;;;;;;;;;;5070283;28;20259;-57
2024/03/22 05:48:48;;;;;;;1.08;0.50;;;;;;;;;;5070081;28;20032;-56
2024/03/22 05:51:13;;;;;;;0.52;0.40;;;;;;;;;;5070771;28;20086;-56
2024/03/22 05:53:39;;;;;;;0.82;0.50;;;;;;;;;;5069650;28;20469;-56
2024/03/22 05:56:05;;;;;;;0.60;0.47;;;;;;;;;;5068861;28;20047;-56
2024/03/22 05:58:30;;;;;;;1.20;0.60;;;;;;;;;;5070036;28;20032;-57
2024/03/22 06:00:55;;;;;;;3.97;0.50;;;;;;;;;;5070605;28;20040;-53
2024/03/22 06:03:21;;;;;;;0.55;0.40;;;;;;;;;;5069683;28;20029;-56
2024/03/22 06:05:47;;;;;;;0.77;0.60;;;;;;;;;;5069989;28;20048;-56
2024/03/22 06:08:12;;;;;;;0.60;0.40;;;;;;;;;;5070260;28;20076;-55
2024/03/22 06:10:37;;;;;;;0.85;0.50;;;;;;;;;;5069703;28;20055;-57
2024/03/22 06:13:03;;;;;;;0.82;0.40;;;;;;;;;;5070421;28;20376;-56
2024/03/22 06:15:29;;;;;;;2.92;0.60;;;;;;;;;;5069886;28;20086;-56
2024/03/22 06:17:54;;;;;;;0.60;0.40;;;;;;;;;;5069527;28;20115;-57
2024/03/22 06:20:19;;;;;;;0.47;0.43;;;;;;;;;;5070037;28;20482;-57
2024/03/22 06:22:45;;;;;;;0.40;0.32;;;;;;;;;;5070249;28;20524;-56
2024/03/22 06:25:10;;;;;;;0.63;0.50;;;;;;;;;;5069806;28;20533;-55
2024/03/22 06:27:35;;;;;;;0.55;0.45;;;;;;;;;;5069824;28;20037;-55
2024/03/22 06:30:01;;;;;;;0.40;0.40;;;;;;;;;;5069923;28;20365;-57
2024/03/22 06:32:26;;;;;;;0.80;0.50;;;;;;;;;;5069365;28;20545;-56
2024/03/22 06:34:51;;;;;;;0.80;0.45;;;;;;;;;;5069588;28;20033;-55
2024/03/22 06:37:17;;;;;;;0.40;0.40;;;;;;;;;;5070214;28;20111;-56
2024/03/22 06:39:42;;;;;;;0.30;0.30;;;;;;;;;;5070109;28;20119;-56
2024/03/22 06:42:07;;;;;;;0.45;0.40;;;;;;;;;;5069467;28;20067;-56
2024/03/22 06:44:32;;;;;;;0.40;0.40;;;;;;;;;;5070146;28;20079;-56
2024/03/22 06:46:58;;;;;;;0.40;0.30;;;;;;;;;;5069828;28;20083;-57
2024/03/22 06:49:23;;;;;;;0.55;0.40;;;;;;;;;;5068865;28;20706;-55
2024/03/22 06:51:49;;;;;;;0.35;0.30;;;;;;;;;;5069589;28;20045;-54
2024/03/22 06:54:14;;;;;;;0.52;0.45;;;;;;;;;;5069947;28;20063;-53
2024/03/22 06:56:40;;;;;;;0.68;0.40;;;;;;;;;;5069373;28;20071;-55
2024/03/22 06:59:06;;;;;;;0.35;0.35;;;;;;;;;;5069519;28;20036;-57
2024/03/22 07:01:31;;;;;;;0.45;0.40;;;;;;;;;;5067725;28;20854;-54
2024/03/22 07:03:57;;;;;;;0.88;0.50;;;;;;;;;;5069413;28;20044;-55
2024/03/22 07:06:22;;;;;;;0.40;0.40;;;;;;;;;;5073092;28;20079;-55
2024/03/22 07:08:47;;;;;;;0.52;0.40;;;;;;;;;;5073281;28;20067;-54
2024/03/22 07:11:13;;;;;;;0.65;0.50;;;;;;;;;;5073467;28;20111;-57
2024/03/22 07:13:38;;;;;;;0.40;0.40;;;;;;;;;;5073086;28;20051;-56
2024/03/22 07:16:04;;;;;;;0.45;0.40;;;;;;;;;;5073418;28;20532;-56
2024/03/22 07:18:29;;;;;;;0.30;0.30;;;;;;;;;;5072804;28;20115;-61
2024/03/22 07:20:55;;;;;;;0.30;0.30;;;;;;;;;;5072966;28;20128;-61
2024/03/22 07:23:20;;;;;;;0.45;0.30;;;;;;;;;;5073446;28;20060;-61
2024/03/22 07:25:48;;;;;;;0.50;0.45;;;;;;;;;;5073116;28;20043;-60
2024/03/22 07:28:13;;;;;;;0.73;0.40;;;;;;;;;;5072535;28;20086;-59
2024/03/22 07:30:38;;;;;;;0.50;0.40;;;;;;;;;;5072749;28;20036;-60
2024/03/22 07:33:04;;;;;;;0.57;0.32;;;;;;;;;;5072589;28;20058;-61
2024/03/22 07:35:30;;;;;;;0.43;0.40;;;;;;;;;;5061146;28;20032;-61
2024/03/22 07:37:56;;;;;;;0.77;0.50;;;;;;;;;;5072823;28;20025;-61
2024/03/22 07:40:21;;;;;;;0.73;0.40;;;;;;;;;;5073116;28;20076;-61
2024/03/22 07:42:47;;;;;;;0.30;0.30;;;;;;;;;;5072282;28;20082;-60
2024/03/22 07:45:12;;;;;;;0.57;0.30;;;;;;;;;;5072211;28;20043;-61
2024/03/22 07:47:38;;;;;;;0.50;0.40;;;;;;;;;;5072732;28;20047;-60
2024/03/22 07:50:04;;;;;;;0.30;0.30;;;;;;;;;;5071975;28;20439;-62
2024/03/22 07:52:29;;;;;;;5.40;0.45;;;;;;;;;;5071965;28;20385;-61
2024/03/22 07:54:54;;;;;;;0.30;0.30;;;;;;;;;;5071810;28;20037;-61
2024/03/22 07:57:20;;;;;;;0.73;0.45;;;;;;;;;;5054809;28;20039;-61
2024/03/22 07:59:45;;;;;;;0.40;0.40;;;;;;;;;;5074606;28;20032;-61
2024/03/22 08:02:11;;;;;;;0.30;0.30;;;;;;;;;;5072690;28;20048;-61
2024/03/22 08:04:36;;;;;;;0.45;0.43;;;;;;;;;;5073827;28;20460;-61
2024/03/22 08:07:01;;;;;;;0.55;0.43;;;;;;;;;;5072296;28;20024;-61
2024/03/22 08:09:27;;;;;;;0.30;0.30;;;;;;;;;;5071923;28;20040;-60
2024/03/22 08:11:52;;;;;;;0.30;0.30;;;;;;;;;;5064446;28;20727;-59
2024/03/22 08:14:17;;;;;;;0.63;0.50;;;;;;;;;;5070909;28;20051;-59
2024/03/22 08:16:43;;;;;;;0.32;0.32;;;;;;;;;;5070004;28;20071;-61
2024/03/22 08:19:08;;;;;;;0.88;0.40;;;;;;;;;;5071757;28;20036;-61
2024/03/22 08:21:34;;;;;;;0.75;0.40;;;;;;;;;;5071533;28;20085;-61
2024/03/22 08:23:59;;;;;;;1.27;0.30;;;;;;;;;;5070599;28;20222;-59
2024/03/22 08:26:25;;;;;;;1.60;0.57;;;;;;;;;;5071113;28;20039;-61
2024/03/22 08:28:50;;;;;;;0.90;0.52;;;;;;;;;;5072190;28;20037;-60
2024/03/22 08:31:16;;;;;;;0.63;0.40;;;;;;;;;;5067401;28;20032;-60
2024/03/22 08:33:42;;;;;;;0.70;0.40;;;;;;;;;;5072217;28;20614;-61
2024/03/22 08:36:07;;;;;;;0.35;0.30;;;;;;;;;;5071529;28;20121;-59
2024/03/22 08:38:33;;;;;;;0.45;0.40;;;;;;;;;;5070439;28;20123;-61
2024/03/22 08:40:58;;;;;;;2.25;0.43;;;;;;;;;;5070936;28;20468;-61
2024/03/22 08:43:25;;;;;;;2.05;0.47;;;;;;;;;;5071694;28;20048;-61
2024/03/22 08:45:51;;;;;;;3.10;0.50;;;;;;;;;;5070949;28;20484;-60
2024/03/22 08:48:17;;;;;;;0.52;0.40;;;;;;;;;;5070289;28;20035;-60
2024/03/22 08:50:43;;;;;;;0.63;0.40;;;;;;;;;;5069373;28;20038;-61
2024/03/22 08:53:08;;;;;;;1.00;0.43;;;;;;;;;;5052241;28;20032;-61
2024/03/22 08:55:34;;;;;;;0.60;0.40;;;;;;;;;;5070203;28;20071;-59
2024/03/22 08:57:59;;;;;;;2.28;0.50;;;;;;;;;;5070132;28;20038;-60
2024/03/22 09:00:24;;;;;;;1.48;0.60;;;;;;;;;;5068510;28;20042;-60
2024/03/22 09:02:50;;;;;;;0.80;0.50;;;;;;;;;;5070428;28;20040;-60
2024/03/22 09:05:15;;;;;;;1.95;0.40;;;;;;;;;;5069211;28;20082;-60
2024/03/22 09:07:40;;;;;;;1.00;0.50;;;;;;;;;;5069497;28;20040;-60
2024/03/22 09:10:06;;;;;;;0.68;0.38;;;;;;;;;;5069433;28;20123;-61
2024/03/22 09:12:32;;;;;;;0.68;0.43;;;;;;;;;;5068983;28;20040;-61
2024/03/22 09:14:57;;;;;;;0.85;0.50;;;;;;;;;;5069516;28;20115;-61
2024/03/22 09:17:22;;;;;;;0.70;0.40;;;;;;;;;;5064808;28;20078;-62
2024/03/22 09:19:48;;;;;;;1.63;0.70;;;;;;;;;;5055026;28;20052;-63
2024/03/22 09:22:14;;;;;;;1.40;0.57;;;;;;;;;;5066520;28;20465;-63
2024/03/22 09:24:40;;;;;;;3.80;0.80;;;;;;;;;;5060263;28;20048;-62
2024/03/22 09:27:08;;;;;;;1.65;0.60;;;;;;;;;;5066182;28;20032;-62
2024/03/22 09:29:34;;;;;;;2.97;0.80;;;;;;;;;;5066462;28;20036;-62
2024/03/22 09:31:59;;;;;;;2.50;0.65;;;;;;;;;;5066854;28;20061;-61
2024/03/22 09:34:25;;;;;;;1.88;0.60;;;;;;;;;;5067222;28;20040;-62
2024/03/22 09:36:50;;;;;;;3.38;0.70;;;;;;;;;;5066338;28;20144;-62
2024/03/22 09:39:15;;;;;;;2.38;0.80;;;;;;;;;;5066632;28;20117;-62
2024/03/22 09:41:43;;;;;;;3.58;1.00;;;;;;;;;;5066636;28;20082;-61
2024/03/22 09:44:13;;;;;;;1.70;0.60;;;;;;;;;;5066638;28;20063;-62
2024/03/22 09:46:40;;;;;;;2.58;0.90;;;;;;;;;;5064748;28;20491;-63
2024/03/22 09:49:06;;;;;;;3.88;0.70;;;;;;;;;;5060589;28;20029;-63
2024/03/22 09:51:31;;;;;;;2.78;0.82;;;;;;;;;;5048538;28;20040;-62
2024/03/22 09:53:57;;;;;;;3.15;0.70;;;;;;;;;;5048402;28;20112;-62
2024/03/22 09:56:24;;;;;;;6.53;1.30;;;;;;;;;;5066793;28;20368;-62
2024/03/22 09:58:49;;;;;;;2.45;0.85;;;;;;;;;;5048220;28;20045;-62
2024/03/22 10:01:15;;;;;;;4.63;1.10;;;;;;;;;;5063931;28;20037;-61
2024/03/22 10:03:40;;;;;;;3.35;0.73;;;;;;;;;;5048712;28;20028;-61
2024/03/22 10:06:06;;;;;;;6.47;0.82;;;;;;;;;;5062125;28;20064;-62
2024/03/22 10:08:32;;;;;;;2.05;0.68;;;;;;;;;;5065170;28;20040;-62
2024/03/22 10:10:57;;;;;;;4.05;0.73;;;;;;;;;;5065896;28;20099;-62
2024/03/22 10:13:22;;;;;;;3.95;0.90;;;;;;;;;;5065766;28;20040;-62
2024/03/22 10:15:48;;;;;;;3.42;0.73;;;;;;;;;;5065272;28;20036;-61
2024/03/22 10:18:15;;;;;;;4.80;0.88;;;;;;;;;;5065579;28;20045;-63
2024/03/22 10:20:40;;;;;;;3.60;0.90;;;;;;;;;;5061813;28;20052;-62
2024/03/22 10:23:07;;;;;;;4.32;0.90;;;;;;;;;;5065377;28;20395;-62
2024/03/22 10:25:34;;;;;;;4.40;1.10;;;;;;;;;;5065319;28;20476;-62
2024/03/22 10:27:59;;;;;;;3.38;0.70;;;;;;;;;;5065153;28;20478;-62
2024/03/22 10:30:25;;;;;;;4.78;0.70;;;;;;;;;;5064471;28;20127;-62
2024/03/22 10:32:51;;;;;;;5.05;0.90;;;;;;;;;;5065518;28;20111;-63
2024/03/22 10:35:17;;;;;;;2.75;0.70;;;;;;;;;;5065279;28;20135;-61
2024/03/22 10:37:43;;;;;;;2.95;0.90;;;;;;;;;;5064813;28;20454;-63
2024/03/22 10:40:09;;;;;;;4.45;0.80;;;;;;;;;;5067565;28;20040;-62
2024/03/22 10:42:35;;;;;;;1.58;0.70;;;;;;;;;;5069576;28;20040;-63
2024/03/22 10:45:05;;;;;;;2.83;0.80;;;;;;;;;;5068250;28;20052;-63
2024/03/22 10:47:32;;;;;;;2.58;0.73;;;;;;;;;;5067112;28;20035;-62
2024/03/22 10:50:06;;;;;;;5.05;1.17;;;;;;;;;;5069092;28;20037;-62
2024/03/22 10:52:36;;;;;;;2.03;0.82;;;;;;;;;;5062302;28;20033;-62
2024/03/22 10:55:04;;;;;;;5.80;1.70;;;;;;;;;;5069553;28;20044;-62
2024/03/22 10:57:30;;;;;;;5.78;0.90;;;;;;;;;;5067575;28;20194;-62
2024/03/22 10:59:56;;;;;;;2.65;0.80;;;;;;;;;;5067613;28;20024;-62
2024/03/22 11:02:24;;;;;;;2.53;1.00;;;;;;;;;;5069481;28;20044;-63
2024/03/22 11:04:58;;;;;;;2.30;1.00;;;;;;;;;;5069458;28;20660;-62
2024/03/22 11:07:28;;;;;;;3.92;1.00;;;;;;;;;;5056838;28;20037;-62
2024/03/22 11:09:56;;;;;;;2.63;0.80;;;;;;;;;;5050851;28;20588;-63
2024/03/22 11:12:26;;;;;;;3.28;0.93;;;;;;;;;;5068629;28;20039;-63
2024/03/22 11:14:55;;;;;;;3.75;1.13;;;;;;;;;;5066471;28;20029;-62
2024/03/22 11:17:24;;;;;;;9.02;1.00;;;;;;;;;;5066812;28;20396;-62
2024/03/22 11:19:51;;;;;;;6.82;1.00;;;;;;;;;;5067213;28;20059;-62
2024/03/22 11:22:17;;;;;;;6.95;1.02;;;;;;;;;;5068487;28;20032;-62
2024/03/22 11:24:42;;;;;;;4.85;1.30;;;;;;;;;;5067891;28;20044;-63
2024/03/22 11:27:10;;;;;;;7.60;1.20;;;;;;;;;;5068165;28;20117;-63
2024/03/22 11:29:38;;;;;;;2.53;0.88;;;;;;;;;;5068766;28;20045;-63
2024/03/22 11:32:04;;;;;;;4.93;1.00;;;;;;;;;;5064715;28;20059;-63
2024/03/22 11:34:29;;;;;;;4.28;1.17;;;;;;;;;;5050185;28;20523;-63
2024/03/22 11:36:55;;;;;;;6.10;0.98;;;;;;;;;;5064430;28;20043;-63
2024/03/22 11:39:21;;;;;;;8.95;1.30;;;;;;;;;;5062913;28;20028;-63
2024/03/22 11:41:48;;;;;;;11.57;1.10;;;;;;;;;;5066277;28;20138;-63
2024/03/22 11:44:15;;;;;;;7.72;1.05;;;;;;;;;;5050578;28;20048;-62
2024/03/22 11:46:40;;;;;;;4.88;0.98;;;;;;;;;;5064174;28;20116;-62
2024/03/22 11:49:06;;;;;;;4.45;1.23;;;;;;;;;;5067024;28;20132;-62
2024/03/22 11:51:31;;;;;;;5.13;1.27;;;;;;;;;;5066560;28;20051;-63
2024/03/22 11:53:57;;;;;;;6.60;1.02;;;;;;;;;;5067782;28;20032;-62
2024/03/22 11:56:24;;;;;;;3.35;1.05;;;;;;;;;;5064567;28;20107;-61
2024/03/22 11:58:58;;;;;;;4.35;0.90;;;;;;;;;;5068379;28;20043;-62
2024/03/22 12:01:23;;;;;;;;;;;;;;;;;;5069125;28;20063;-62
2024/03/22 12:03:48;;;;;;;3.67;1.20;;;;;;;;;;5067557;28;20383;-62
2024/03/22 12:06:15;;;;;;;4.43;0.90;;;;;;;;;;5068305;28;20285;-62
2024/03/22 12:08:41;;;;;;;6.07;1.20;;;;;;;;;;5065055;28;20043;-62
2024/03/22 12:11:10;;;;;;;4.95;0.93;;;;;;;;;;5068221;28;20049;-63
2024/03/22 12:13:35;;;;;;;3.10;1.10;;;;;;;;;;5062378;28;20489;-63
2024/03/22 12:16:04;;;;;;;2.35;0.98;;;;;;;;;;5066046;28;20040;-63
2024/03/22 12:18:29;;;;;;;4.30;0.88;;;;;;;;;;5066788;28;20044;-62
2024/03/22 12:20:54;;;;;;;4.57;1.10;;;;;;;;;;5067738;28;20045;-61
2024/03/22 12:23:20;;;;;;;3.78;1.00;;;;;;;;;;5068286;28;20040;-62
2024/03/22 12:25:45;;;;;;;2.90;1.00;;;;;;;;;;5068013;28;20033;-62
2024/03/22 12:28:10;;;;;;;4.93;1.08;;;;;;;;;;5068109;28;20037;-62
2024/03/22 12:30:36;;;;;;;4.13;1.15;;;;;;;;;;5068086;28;20020;-62
2024/03/22 12:33:01;;;;;;;4.72;0.90;;;;;;;;;;5068082;28;20446;-63
2024/03/22 12:35:26;;;;;;;2.92;0.98;;;;;;;;;;5067496;28;20441;-62
2024/03/22 12:37:53;;;;;;;4.65;0.98;;;;;;;;;;5067719;28;20062;-61
2024/03/22 12:40:18;;;;;;;3.90;1.10;;;;;;;;;;5068714;28;20388;-60
2024/03/22 12:42:44;;;;;;;3.03;0.90;;;;;;;;;;5067403;28;20033;-62
2024/03/22 12:45:09;;;;;;;5.68;1.05;;;;;;;;;;5067523;28;20422;-62
2024/03/22 12:47:34;;;;;;;2.47;1.00;;;;;;;;;;5064765;28;20502;-61
2024/03/22 12:50:00;;;;;;;4.03;1.05;;;;;;;;;;5067383;28;20123;-62
2024/03/22 12:52:25;;;;;;;2.95;1.08;;;;;;;;;;5063970;28;20029;-61
2024/03/22 12:54:51;;;;;;;2.63;1.00;;;;;;;;;;5063138;28;20044;-62
2024/03/22 12:57:16;;;;;;;2.90;1.00;;;;;;;;;;5066072;28;20036;-63
2024/03/22 12:59:41;;;;;;;3.22;1.17;;;;;;;;;;5066978;28;20419;-63
2024/03/22 13:02:07;;;;;;;5.70;0.88;;;;;;;;;;5066155;28;20492;-62
2024/03/22 13:04:33;;;;;;;3.30;1.00;;;;;;;;;;5064590;28;20041;-63
2024/03/22 13:06:58;;;;;;;2.60;1.00;;;;;;;;;;5067688;28;20085;-62
2024/03/22 13:09:24;;;;;;;1.77;0.80;;;;;;;;;;5066316;28;20037;-62
2024/03/22 13:11:49;;;;;;;1.38;0.70;;;;;;;;;;5067099;28;20387;-62
2024/03/22 13:14:15;;;;;;;2.20;0.75;;;;;;;;;;5066803;28;20460;-63
2024/03/22 13:16:40;;;;;;;6.68;1.02;;;;;;;;;;5058835;28;20116;-62
2024/03/22 13:19:08;;;;;;;2.63;0.95;;;;;;;;;;5064966;28;20592;-63
2024/03/22 13:21:34;;;;;;;3.88;1.20;;;;;;;;;;5064975;28;20542;-60
2024/03/22 13:23:59;;;;;;;3.17;1.00;;;;;;;;;;5064703;28;20048;-62
2024/03/22 13:26:25;;;;;;;2.38;0.88;;;;;;;;;;5066415;28;20051;-62
2024/03/22 13:28:51;;;;;;;6.57;1.00;;;;;;;;;;5065862;28;20044;-61
2024/03/22 13:31:17;;;;;;;2.50;0.80;;;;;;;;;;5061796;28;20029;-63
2024/03/22 13:33:42;;;;;;;4.90;1.00;;;;;;;;;;5033047;28;20075;-62
2024/03/22 13:36:08;;;;;;;3.22;0.88;;;;;;;;;;5066837;28;20113;-63
2024/03/22 13:38:33;;;;;;;3.10;1.10;;;;;;;;;;5068621;28;20500;-63
2024/03/22 13:41:00;;;;;;;6.68;1.25;;;;;;;;;;5078104;28;20387;-62
2024/03/22 13:43:27;;;;;;;2.28;0.75;;;;;;;;;;5071629;28;20029;-62
2024/03/22 13:45:55;;;;;;;5.90;0.80;;;;;;;;;;5065163;28;20028;-61
2024/03/22 13:48:24;;;;;;;6.57;1.00;;;;;;;;;;5065843;28;20051;-62
2024/03/22 13:50:54;;;;;;;3.05;0.88;;;;;;;;;;5059910;28;20040;-63
2024/03/22 13:53:23;;;;;;;8.85;0.80;;;;;;;;;;5066412;28;20109;-63
2024/03/22 13:55:54;;;;;;;3.72;0.93;;;;;;;;;;5045868;28;20029;-62
2024/03/22 13:58:20;;;;;;;4.85;0.90;;;;;;;;;;5069761;28;20036;-62
2024/03/22 14:00:45;;;;;;;14.25;1.17;;;;;;;;;;5066555;28;20048;-63
2024/03/22 14:03:10;;;;;;;6.88;0.95;;;;;;;;;;5058872;28;20059;-63
2024/03/22 14:05:36;;;;;;;2.97;0.95;;;;;;;;;;5065700;28;20025;-60
2024/03/22 14:08:03;;;;;;;2.90;1.00;;;;;;;;;;5065954;28;20048;-61
2024/03/22 14:10:31;;;;;;;1.60;0.60;;;;;;;;;;5062981;28;20044;-61
2024/03/22 14:12:57;;;;;;;6.05;1.30;;;;;;;;;;5063842;28;20024;-60
2024/03/22 14:15:24;;;;;;;3.90;0.93;;;;;;;;;;5066157;28;20044;-60
2024/03/22 14:17:50;;;;;;;3.08;0.98;;;;;;;;;;5066058;28;20029;-60
2024/03/22 14:20:16;;;;;;;2.60;0.80;;;;;;;;;;5065810;28;21150;-60
2024/03/22 14:22:42;;;;;;;5.18;1.00;;;;;;;;;;5065894;28;20036;-60
2024/03/22 14:25:11;;;;;;;3.42;1.15;;;;;;;;;;5065846;28;20043;-60
2024/03/22 14:27:36;;;;;;;2.30;0.75;;;;;;;;;;5056803;28;20025;-60
2024/03/22 14:30:05;;;;;;;2.33;0.93;;;;;;;;;;5066174;28;20079;-60
2024/03/22 14:32:31;;;;;;;2.28;0.80;;;;;;;;;;5066819;28;20474;-60
2024/03/22 14:34:57;;;;;;;4.57;0.93;;;;;;;;;;5065804;28;20028;-60